Time;durP1;ratioP1;P1;durP2;ratioP2;P2;SDS_P1;SDS_P2;PMS_P1;PMS_P2;Temp;Humidity;BMP_temperature;BMP_pressure;BME280_temperature;BME280_humidity;BME280_pressure;Samples;Min_cycle;Max_cycle;Signal;HPM_P1;HPM_P2
2023/08/20 00:00:35;;;;;;;12.48;9.45;;;22.10;99.90;;;;;;5011643;28;20617;-44
2023/08/20 00:03:11;;;;;;;13.05;10.13;;;22.00;99.90;;;;;;5011785;28;20160;-43
2023/08/20 00:05:38;;;;;;;12.15;8.70;;;22.00;99.90;;;;;;5012114;28;20179;-43
2023/08/20 00:08:04;;;;;;;13.52;8.82;;;22.00;99.90;;;;;;5011759;28;20229;-43
2023/08/20 00:10:30;;;;;;;10.80;8.55;;;22.10;99.90;;;;;;5010783;28;20699;-43
2023/08/20 00:12:56;;;;;;;9.95;8.55;;;22.00;99.90;;;;;;5011525;28;20227;-43
2023/08/20 00:15:26;;;;;;;15.48;8.13;;;22.00;99.90;;;;;;5011616;28;20180;-44
2023/08/20 00:17:52;;;;;;;9.98;8.25;;;22.00;99.90;;;;;;5010394;28;20556;-43
2023/08/20 00:20:18;;;;;;;10.25;7.95;;;21.90;99.90;;;;;;5015885;28;20541;-44
2023/08/20 00:22:47;;;;;;;10.18;7.75;;;22.00;99.90;;;;;;5031079;28;20253;-46
2023/08/20 00:25:14;;;;;;;12.60;7.68;;;22.00;99.90;;;;;;5031268;28;20175;-43
2023/08/20 00:27:40;;;;;;;9.77;8.27;;;21.90;99.90;;;;;;5031370;28;20176;-43
2023/08/20 00:30:08;;;;;;;16.67;9.43;;;21.80;99.90;;;;;;5031285;28;20182;-43
2023/08/20 00:32:33;;;;;;;12.52;8.40;;;21.90;99.90;;;;;;5031149;28;20172;-43
2023/08/20 00:34:59;;;;;;;9.27;7.97;;;21.80;99.90;;;;;;5031770;28;20174;-43
2023/08/20 00:37:25;;;;;;;10.35;8.45;;;21.70;99.90;;;;;;5031031;28;20616;-43
2023/08/20 00:39:51;;;;;;;13.13;9.07;;;21.70;99.90;;;;;;5031000;28;20602;-43
2023/08/20 00:42:16;;;;;;;10.20;9.15;;;21.60;99.90;;;;;;5031352;28;20175;-43
2023/08/20 00:44:44;;;;;;;13.85;8.73;;;21.70;99.90;;;;;;5030803;28;20179;-43
2023/08/20 00:47:10;;;;;;;11.65;8.07;;;21.60;99.90;;;;;;5031341;28;20254;-43
2023/08/20 00:49:36;;;;;;;12.18;9.55;;;21.90;99.90;;;;;;5030893;28;20635;-43
2023/08/20 00:52:03;;;;;;;13.48;9.13;;;21.60;99.90;;;;;;5030903;28;20217;-43
2023/08/20 00:54:29;;;;;;;11.48;8.73;;;21.70;99.90;;;;;;5031625;28;20548;-43
2023/08/20 00:56:55;;;;;;;19.33;9.73;;;21.70;99.90;;;;;;5030940;28;20203;-42
2023/08/20 00:59:21;;;;;;;13.15;8.93;;;21.70;99.90;;;;;;5031036;28;21178;-43
2023/08/20 01:01:46;;;;;;;11.80;9.30;;;21.50;99.90;;;;;;5030900;28;20272;-43
2023/08/20 01:04:12;;;;;;;13.20;8.88;;;21.60;99.90;;;;;;5032414;28;20246;-43
2023/08/20 01:06:59;;;;;;;15.18;9.13;;;21.70;99.90;;;;;;5033596;28;20175;-43
2023/08/20 01:09:58;;;;;;;13.80;10.18;;;21.60;99.90;;;;;;5034381;28;20163;-43
2023/08/20 01:12:25;;;;;;;12.38;9.35;;;21.60;99.90;;;;;;5034225;28;20238;-43
2023/08/20 01:14:51;;;;;;;11.80;9.85;;;21.60;99.90;;;;;;5025339;28;20726;-43
2023/08/20 01:17:16;;;;;;;15.85;10.50;;;21.60;99.90;;;;;;5014503;28;20212;-43
2023/08/20 01:19:42;;;;;;;14.63;9.88;;;21.50;99.90;;;;;;5014466;28;20219;-44
2023/08/20 01:22:38;;;;;;;14.10;10.00;;;21.40;99.90;;;;;;5014405;28;20541;-43
2023/08/20 01:25:32;;;;;;;12.60;9.57;;;21.40;99.90;;;;;;5014394;28;20164;-43
2023/08/20 01:28:15;;;;;;;11.18;9.80;;;21.30;99.90;;;;;;5015005;28;20192;-43
2023/08/20 01:30:42;;;;;;;11.90;9.30;;;21.20;99.90;;;;;;5014266;28;20171;-43
2023/08/20 01:33:10;;;;;;;12.45;9.25;;;21.30;99.90;;;;;;5014327;28;20262;-43
2023/08/20 01:35:36;;;;;;;13.70;10.02;;;21.10;99.90;;;;;;5014413;28;20176;-43
2023/08/20 01:38:01;;;;;;;14.48;11.43;;;21.20;99.90;;;;;;5013715;28;20227;-43
2023/08/20 01:40:27;;;;;;;13.32;10.93;;;21.10;99.90;;;;;;5014445;28;20195;-42
2023/08/20 01:42:52;;;;;;;15.88;10.75;;;21.10;99.90;;;;;;5014010;28;20180;-45
2023/08/20 01:45:18;;;;;;;15.35;10.05;;;21.10;99.90;;;;;;5012645;28;20196;-43
2023/08/20 01:47:44;;;;;;;15.48;10.50;;;21.00;99.90;;;;;;5014251;28;20172;-43
2023/08/20 01:50:10;;;;;;;14.40;11.25;;;20.90;99.90;;;;;;5013820;28;20176;-43
2023/08/20 01:52:35;;;;;;;14.65;9.95;;;21.10;99.90;;;;;;5014139;28;20207;-42
2023/08/20 01:55:01;;;;;;;13.52;9.95;;;21.10;99.90;;;;;;5013963;28;20191;-43
2023/08/20 01:57:27;;;;;;;13.45;9.63;;;21.00;99.90;;;;;;5014094;28;20641;-43
2023/08/20 01:59:52;;;;;;;12.50;9.68;;;21.10;99.90;;;;;;5013699;28;20171;-44
2023/08/20 02:02:18;;;;;;;13.25;8.75;;;21.10;99.90;;;;;;5013614;28;20180;-43
2023/08/20 02:04:43;;;;;;;14.35;10.50;;;21.10;99.90;;;;;;5013912;28;20168;-44
2023/08/20 02:07:09;;;;;;;11.98;9.93;;;21.10;99.90;;;;;;5024091;28;20175;-43
2023/08/20 02:09:34;;;;;;;16.15;10.70;;;21.10;99.90;;;;;;5032931;28;20545;-43
2023/08/20 02:12:00;;;;;;;12.88;11.10;;;20.90;99.90;;;;;;5033481;28;20575;-43
2023/08/20 02:14:28;;;;;;;14.30;11.55;;;21.00;99.90;;;;;;5033511;28;20544;-43
2023/08/20 02:16:53;;;;;;;17.90;11.88;;;21.10;99.90;;;;;;5032235;28;20191;-45
2023/08/20 02:19:19;;;;;;;15.38;11.27;;;21.10;99.90;;;;;;5033047;28;20171;-43
2023/08/20 02:21:44;;;;;;;14.30;10.80;;;21.00;99.90;;;;;;5032993;28;20167;-43
2023/08/20 02:24:10;;;;;;;12.55;10.48;;;21.00;99.90;;;;;;5033025;28;20182;-43
2023/08/20 02:26:35;;;;;;;19.17;11.23;;;21.00;99.90;;;;;;5032960;28;20628;-43
2023/08/20 02:29:02;;;;;;;14.32;10.32;;;21.00;99.90;;;;;;5032979;28;20669;-43
2023/08/20 02:31:27;;;;;;;13.60;10.18;;;21.00;99.90;;;;;;5033457;28;20239;-43
2023/08/20 02:33:53;;;;;;;12.75;10.95;;;21.00;99.90;;;;;;5032835;28;20171;-43
2023/08/20 02:36:18;;;;;;;13.63;10.02;;;21.00;99.90;;;;;;5023978;28;20172;-43
2023/08/20 02:38:45;;;;;;;13.45;10.15;;;21.00;99.90;;;;;;5012806;28;20266;-43
2023/08/20 02:41:12;;;;;;;13.68;9.88;;;20.90;99.90;;;;;;5012817;28;20168;-43
2023/08/20 02:43:37;;;;;;;15.57;10.07;;;20.90;99.90;;;;;;5011698;28;20176;-43
2023/08/20 02:46:03;;;;;;;14.93;10.85;;;20.80;99.90;;;;;;5012874;28;20160;-44
2023/08/20 02:48:29;;;;;;;10.43;9.32;;;21.00;99.90;;;;;;5013195;28;20230;-44
2023/08/20 02:50:55;;;;;;;15.63;10.85;;;21.00;99.90;;;;;;5012733;28;20179;-43
2023/08/20 02:53:21;;;;;;;15.40;11.52;;;21.00;99.90;;;;;;5012665;28;20168;-43
2023/08/20 02:55:46;;;;;;;12.90;9.88;;;21.10;99.90;;;;;;5012655;28;20179;-43
2023/08/20 02:58:12;;;;;;;13.63;9.98;;;21.10;99.90;;;;;;5012471;28;20207;-43
2023/08/20 03:00:38;;;;;;;12.50;10.80;;;21.00;99.90;;;;;;5012556;28;20639;-43
2023/08/20 03:03:07;;;;;;;13.50;10.30;;;20.90;99.90;;;;;;5012648;28;20230;-45
2023/08/20 03:05:32;;;;;;;14.75;10.57;;;21.00;99.90;;;;;;5014275;28;20165;-43
2023/08/20 03:07:58;;;;;;;14.10;10.15;;;20.80;99.90;;;;;;5032624;28;20699;-43
2023/08/20 03:10:24;;;;;;;12.43;10.20;;;20.80;99.90;;;;;;5032092;28;20187;-43
2023/08/20 03:12:49;;;;;;;17.58;11.93;;;20.80;99.90;;;;;;5031935;28;20718;-43
2023/08/20 03:15:15;;;;;;;15.05;11.73;;;20.70;99.90;;;;;;5032040;28;20202;-43
2023/08/20 03:17:40;;;;;;;12.63;11.25;;;20.70;99.90;;;;;;5031980;28;20278;-43
2023/08/20 03:20:07;;;;;;;15.27;11.73;;;20.70;99.90;;;;;;5032193;28;20286;-43
2023/08/20 03:22:33;;;;;;;17.30;11.73;;;20.80;99.90;;;;;;5032096;28;20194;-44
2023/08/20 03:24:58;;;;;;;13.93;11.40;;;20.80;99.90;;;;;;5032363;28;20532;-43
2023/08/20 03:27:24;;;;;;;14.52;11.38;;;20.80;99.90;;;;;;5031159;28;20175;-43
2023/08/20 03:29:51;;;;;;;12.75;11.38;;;20.80;99.90;;;;;;5031677;28;20162;-43
2023/08/20 03:32:18;;;;;;;17.38;11.98;;;20.70;99.90;;;;;;5031673;28;20167;-43
2023/08/20 03:34:43;;;;;;;18.48;12.45;;;20.80;99.90;;;;;;5031166;28;20178;-43
2023/08/20 03:37:09;;;;;;;17.50;12.02;;;20.90;99.90;;;;;;5012107;28;20196;-44
2023/08/20 03:39:34;;;;;;;15.27;11.48;;;20.70;99.90;;;;;;5011890;28;20168;-43
2023/08/20 03:42:00;;;;;;;15.45;12.02;;;20.70;99.90;;;;;;5011865;28;20168;-43
2023/08/20 03:44:26;;;;;;;19.85;12.77;;;20.70;99.90;;;;;;5012515;28;20176;-43
2023/08/20 03:46:51;;;;;;;18.65;13.20;;;20.70;99.90;;;;;;5011827;28;20168;-43
2023/08/20 03:49:17;;;;;;;18.75;12.85;;;20.70;99.90;;;;;;5011714;28;20215;-43
2023/08/20 03:51:42;;;;;;;17.90;12.60;;;20.80;99.90;;;;;;5011863;28;20540;-44
2023/08/20 03:54:08;;;;;;;17.60;13.23;;;20.70;99.90;;;;;;5011814;28;20172;-43
2023/08/20 03:56:34;;;;;;;19.05;12.57;;;20.70;99.90;;;;;;5011839;28;20207;-43
2023/08/20 03:59:00;;;;;;;17.98;11.95;;;20.80;99.90;;;;;;5011739;28;20236;-45
2023/08/20 04:01:26;;;;;;;20.75;12.88;;;20.80;99.90;;;;;;5012166;28;20180;-43
2023/08/20 04:03:51;;;;;;;17.38;12.50;;;20.80;99.90;;;;;;5011648;28;20176;-42
2023/08/20 04:06:17;;;;;;;18.13;12.13;;;20.70;99.90;;;;;;5024637;28;20175;-43
2023/08/20 04:08:42;;;;;;;14.43;12.27;;;20.80;99.90;;;;;;5031355;28;20195;-43
2023/08/20 04:11:08;;;;;;;17.80;12.15;;;20.80;99.90;;;;;;5031597;28;20178;-44
2023/08/20 04:13:33;;;;;;;16.20;11.82;;;20.80;99.90;;;;;;5031165;28;20237;-44
2023/08/20 04:15:59;;;;;;;17.27;12.73;;;20.80;99.90;;;;;;5031770;28;20191;-43
2023/08/20 04:18:25;;;;;;;17.55;13.07;;;20.80;99.90;;;;;;5031694;28;20207;-46
2023/08/20 04:20:52;;;;;;;20.20;15.73;;;20.80;99.90;;;;;;5031207;28;20156;-47
2023/08/20 04:23:18;;;;;;;17.95;13.43;;;20.80;99.90;;;;;;5031240;28;20302;-44
2023/08/20 04:25:44;;;;;;;18.92;14.45;;;20.90;99.90;;;;;;5031440;28;20635;-44
2023/08/20 04:28:11;;;;;;;17.80;13.35;;;20.80;99.90;;;;;;5031469;28;20172;-43
2023/08/20 04:30:36;;;;;;;17.05;13.02;;;20.90;99.90;;;;;;5031189;28;20159;-43
2023/08/20 04:33:02;;;;;;;18.15;14.73;;;20.80;99.90;;;;;;5031074;28;20632;-43
2023/08/20 04:35:28;;;;;;;22.10;14.00;;;20.70;99.90;;;;;;5030988;28;20183;-43
2023/08/20 04:37:53;;;;;;;25.33;14.65;;;20.80;99.90;;;;;;5031119;28;20243;-42
2023/08/20 04:40:19;;;;;;;19.30;15.15;;;20.80;99.90;;;;;;5034625;28;21015;-43
2023/08/20 04:42:44;;;;;;;20.70;14.32;;;20.80;99.90;;;;;;5034960;28;20250;-42
2023/08/20 04:45:13;;;;;;;17.70;13.80;;;20.80;99.90;;;;;;5034911;28;20286;-43
2023/08/20 04:47:39;;;;;;;22.80;14.45;;;20.70;99.90;;;;;;5035162;28;20518;-43
2023/08/20 04:50:08;;;;;;;20.45;15.52;;;20.80;99.90;;;;;;5034856;28;20171;-43
2023/08/20 04:52:34;;;;;;;21.95;15.23;;;20.70;99.90;;;;;;5034657;28;20203;-42
2023/08/20 04:55:00;;;;;;;20.50;13.93;;;20.80;99.90;;;;;;5035115;28;20168;-43
2023/08/20 04:57:26;;;;;;;20.88;13.95;;;20.80;99.90;;;;;;5034989;28;20202;-43
2023/08/20 04:59:51;;;;;;;21.13;13.98;;;20.90;99.90;;;;;;5033338;28;20258;-43
2023/08/20 05:02:17;;;;;;;17.02;13.50;;;20.90;99.90;;;;;;5034913;28;20167;-43
2023/08/20 05:04:43;;;;;;;23.67;15.55;;;20.80;99.90;;;;;;5029459;28;20184;-43
2023/08/20 05:07:09;;;;;;;15.60;12.80;;;20.90;99.90;;;;;;5014909;28;20611;-43
2023/08/20 05:09:34;;;;;;;23.75;14.57;;;20.90;99.90;;;;;;5014911;28;20222;-43
2023/08/20 05:12:00;;;;;;;19.23;13.75;;;21.00;99.90;;;;;;5014473;28;20172;-43
2023/08/20 05:14:26;;;;;;;17.10;12.70;;;20.90;99.90;;;;;;5015041;28;20210;-43
2023/08/20 05:16:51;;;;;;;19.92;13.40;;;21.00;99.90;;;;;;5014661;28;20180;-44
2023/08/20 05:19:17;;;;;;;19.67;13.38;;;21.10;99.90;;;;;;5014485;28;20168;-43
2023/08/20 05:21:42;;;;;;;17.67;14.13;;;21.00;99.90;;;;;;5014300;28;20215;-43
2023/08/20 05:24:09;;;;;;;18.95;12.55;;;21.10;99.90;;;;;;5014295;28;20233;-43
2023/08/20 05:26:34;;;;;;;16.38;12.48;;;21.10;99.90;;;;;;5014440;28;20206;-43
2023/08/20 05:29:00;;;;;;;17.33;13.23;;;21.10;99.90;;;;;;5014234;28;20219;-43
2023/08/20 05:31:26;;;;;;;18.90;12.52;;;21.10;99.90;;;;;;5014747;28;20186;-44
2023/08/20 05:33:51;;;;;;;19.95;12.73;;;21.00;99.90;;;;;;5014802;28;20174;-43
2023/08/20 05:36:17;;;;;;;14.95;12.80;;;21.10;99.90;;;;;;5014072;28;20172;-44
2023/08/20 05:38:43;;;;;;;17.17;12.65;;;21.10;99.90;;;;;;5014297;28;20298;-46
2023/08/20 05:41:08;;;;;;;21.67;13.18;;;21.10;99.90;;;;;;5014112;28;20547;-44
2023/08/20 05:43:36;;;;;;;16.23;12.35;;;21.10;99.90;;;;;;5014197;28;20570;-43
2023/08/20 05:46:02;;;;;;;18.20;13.02;;;21.20;99.90;;;;;;5014177;28;20164;-43
2023/08/20 05:48:28;;;;;;;17.58;12.40;;;21.20;99.90;;;;;;5014404;28;20635;-43
2023/08/20 05:50:53;;;;;;;15.30;12.52;;;21.40;99.90;;;;;;5013572;28;20203;-45
2023/08/20 05:53:19;;;;;;;18.48;11.88;;;21.30;99.90;;;;;;5013861;28;20199;-43
2023/08/20 05:55:44;;;;;;;16.88;13.18;;;21.20;99.90;;;;;;5013783;28;20164;-43
2023/08/20 05:58:11;;;;;;;19.70;13.23;;;21.20;99.90;;;;;;5013838;28;20208;-43
2023/08/20 06:00:36;;;;;;;16.17;13.15;;;21.20;99.90;;;;;;5013968;28;20211;-43
2023/08/20 06:03:02;;;;;;;19.83;12.73;;;21.20;99.90;;;;;;5013478;28;20527;-42
2023/08/20 06:05:28;;;;;;;18.70;13.02;;;21.30;99.90;;;;;;5029379;28;20171;-43
2023/08/20 06:07:53;;;;;;;17.67;12.70;;;21.30;99.90;;;;;;5031179;28;20172;-43
2023/08/20 06:10:19;;;;;;;20.45;13.85;;;21.40;99.90;;;;;;5033246;28;20646;-45
2023/08/20 06:12:45;;;;;;;18.73;11.70;;;21.70;99.90;;;;;;5033156;28;20689;-43
2023/08/20 06:15:10;;;;;;;19.48;12.85;;;21.70;99.90;;;;;;5033179;28;20179;-43
2023/08/20 06:17:36;;;;;;;18.67;13.65;;;21.80;99.90;;;;;;5033125;28;20207;-44
2023/08/20 06:20:01;;;;;;;17.02;13.45;;;21.80;99.90;;;;;;5033323;28;20178;-44
2023/08/20 06:22:27;;;;;;;28.00;13.75;;;21.80;99.90;;;;;;5033436;28;20163;-45
2023/08/20 06:24:52;;;;;;;18.52;13.48;;;21.80;99.90;;;;;;5033061;28;20199;-43
2023/08/20 06:27:18;;;;;;;22.08;13.48;;;21.80;99.90;;;;;;5032949;28;20205;-45
2023/08/20 06:29:43;;;;;;;22.70;13.18;;;21.90;99.90;;;;;;5032847;28;20246;-43
2023/08/20 06:32:09;;;;;;;19.73;13.15;;;21.90;99.90;;;;;;5032867;28;20620;-43
2023/08/20 06:34:36;;;;;;;19.38;13.57;;;22.00;99.90;;;;;;5032334;28;20182;-43
2023/08/20 06:37:01;;;;;;;19.02;13.85;;;22.00;99.90;;;;;;5031800;28;20195;-43
2023/08/20 06:39:27;;;;;;;21.75;12.98;;;22.10;99.90;;;;;;5033003;28;20579;-46
2023/08/20 06:41:53;;;;;;;22.08;13.10;;;22.10;99.90;;;;;;5032030;28;20167;-45
2023/08/20 06:44:18;;;;;;;17.90;13.10;;;21.90;99.90;;;;;;5030663;28;20258;-45
2023/08/20 06:46:44;;;;;;;18.67;12.90;;;22.00;99.90;;;;;;5029477;28;20624;-46
2023/08/20 06:49:09;;;;;;;18.70;13.48;;;22.00;99.90;;;;;;5029410;28;20266;-46
2023/08/20 06:51:35;;;;;;;17.10;13.68;;;21.90;99.90;;;;;;5030627;28;20607;-45
2023/08/20 06:54:02;;;;;;;18.00;13.68;;;21.90;99.90;;;;;;5030514;28;20220;-45
2023/08/20 06:56:27;;;;;;;17.42;13.35;;;22.00;99.90;;;;;;5030912;28;20666;-47
2023/08/20 06:58:53;;;;;;;19.10;13.52;;;22.20;99.90;;;;;;5031705;28;20195;-45
2023/08/20 07:01:19;;;;;;;20.45;13.43;;;22.30;99.90;;;;;;5031730;28;20438;-45
2023/08/20 07:03:45;;;;;;;16.05;13.15;;;22.50;99.90;;;;;;5031878;28;20206;-45
2023/08/20 07:06:11;;;;;;;19.23;14.48;;;22.50;99.90;;;;;;5032029;28;20611;-44
2023/08/20 07:08:40;;;;;;;17.67;13.52;;;22.70;99.90;;;;;;5032192;28;20213;-45
2023/08/20 07:11:06;;;;;;;15.40;13.63;;;23.00;99.90;;;;;;5032059;28;20258;-46
2023/08/20 07:13:32;;;;;;;18.90;14.23;;;23.00;99.90;;;;;;5031905;28;20226;-46
2023/08/20 07:15:57;;;;;;;19.10;14.32;;;23.10;99.90;;;;;;5032428;28;20548;-45
2023/08/20 07:18:23;;;;;;;20.00;14.73;;;23.10;99.90;;;;;;5031904;28;20203;-46
2023/08/20 07:20:50;;;;;;;15.50;13.18;;;23.10;99.90;;;;;;5032173;28;20577;-45
2023/08/20 07:23:15;;;;;;;25.67;15.45;;;23.20;99.90;;;;;;5032213;28;20175;-45
2023/08/20 07:25:41;;;;;;;18.30;15.38;;;23.20;99.90;;;;;;5031846;28;20558;-45
2023/08/20 07:28:08;;;;;;;20.42;14.38;;;23.40;99.90;;;;;;5031754;28;20186;-46
2023/08/20 07:30:34;;;;;;;20.23;13.65;;;23.40;99.90;;;;;;5031965;28;20167;-45
2023/08/20 07:33:01;;;;;;;21.92;15.15;;;23.60;99.90;;;;;;5031373;28;20542;-45
2023/08/20 07:35:27;;;;;;;20.48;15.00;;;23.70;99.90;;;;;;5032441;28;20527;-45
2023/08/20 07:37:52;;;;;;;18.80;14.63;;;23.70;99.90;;;;;;5031632;28;20198;-46
2023/08/20 07:40:18;;;;;;;31.15;19.60;;;23.70;99.90;;;;;;5031660;28;20583;-45
2023/08/20 07:42:44;;;;;;;18.42;14.35;;;23.90;99.90;;;;;;5031611;28;20166;-46
2023/08/20 07:45:10;;;;;;;23.80;15.80;;;24.00;99.90;;;;;;5031714;28;20627;-46
2023/08/20 07:47:37;;;;;;;23.42;16.00;;;24.00;99.90;;;;;;5031616;28;20167;-46
2023/08/20 07:50:03;;;;;;;21.58;16.60;;;24.20;99.90;;;;;;5031503;28;20159;-47
2023/08/20 07:52:29;;;;;;;22.40;16.13;;;24.40;99.90;;;;;;5031994;28;20670;-45
2023/08/20 07:54:54;;;;;;;17.92;15.60;;;24.40;99.90;;;;;;5031921;28;20239;-45
2023/08/20 07:57:20;;;;;;;20.70;15.60;;;24.50;99.90;;;;;;5031354;28;20753;-46
2023/08/20 07:59:46;;;;;;;21.77;16.40;;;24.60;99.90;;;;;;5031332;28;20643;-47
2023/08/20 08:02:11;;;;;;;19.02;14.48;;;24.60;99.90;;;;;;5030071;28;20182;-46
2023/08/20 08:04:37;;;;;;;18.92;15.48;;;24.60;99.90;;;;;;5030670;28;20167;-45
2023/08/20 08:07:03;;;;;;;18.20;15.88;;;24.70;99.90;;;;;;5031510;28;20170;-45
2023/08/20 08:09:30;;;;;;;19.73;15.48;;;24.90;99.90;;;;;;5032014;28;20163;-48
2023/08/20 08:11:57;;;;;;;21.10;16.27;;;25.10;99.90;;;;;;5031521;28;20201;-47
2023/08/20 08:14:23;;;;;;;20.80;16.10;;;25.10;99.90;;;;;;5033373;28;20167;-47
2023/08/20 08:16:49;;;;;;;21.45;16.10;;;25.30;99.90;;;;;;5035306;28;20309;-49
2023/08/20 08:19:14;;;;;;;19.42;15.55;;;25.40;99.90;;;;;;5035221;28;20250;-49
2023/08/20 08:21:40;;;;;;;21.23;16.52;;;25.50;99.90;;;;;;5035334;28;20205;-50
2023/08/20 08:24:06;;;;;;;20.75;18.13;;;25.50;99.90;;;;;;5035258;28;20171;-48
2023/08/20 08:26:35;;;;;;;20.35;17.73;;;25.50;99.90;;;;;;5035447;28;20757;-52
2023/08/20 08:29:01;;;;;;;23.35;17.70;;;25.50;99.90;;;;;;5035201;28;20186;-45
2023/08/20 08:31:27;;;;;;;21.80;17.90;;;25.70;99.90;;;;;;5035772;28;20178;-48
2023/08/20 08:33:52;;;;;;;22.20;17.05;;;25.80;99.90;;;;;;5017805;28;20551;-45
2023/08/20 08:36:18;;;;;;;22.02;16.20;;;25.90;99.90;;;;;;5014007;28;20171;-48
2023/08/20 08:38:44;;;;;;;18.02;15.98;;;26.00;99.90;;;;;;5015037;28;20291;-45
2023/08/20 08:41:14;;;;;;;16.70;14.60;;;26.10;99.90;;;;;;5015092;28;20645;-45
2023/08/20 08:43:40;;;;;;;20.25;14.80;;;25.90;99.90;;;;;;5015141;28;20167;-46
2023/08/20 08:46:13;;;;;;;20.55;15.85;;;26.10;99.90;;;;;;5015140;28;20255;-45
2023/08/20 08:48:41;;;;;;;21.52;16.25;;;26.20;99.90;;;;;;5015310;28;20176;-45
2023/08/20 08:51:07;;;;;;;18.50;14.77;;;26.30;99.90;;;;;;5015234;28;20199;-45
2023/08/20 08:53:33;;;;;;;18.00;14.93;;;26.30;99.90;;;;;;5014962;28;20631;-46
2023/08/20 08:55:59;;;;;;;17.92;15.70;;;26.40;99.90;;;;;;5014898;28;20172;-46
2023/08/20 08:58:25;;;;;;;18.73;15.57;;;26.30;99.90;;;;;;5016259;28;20250;-45
2023/08/20 09:00:52;;;;;;;20.45;15.23;;;26.50;99.90;;;;;;5015124;28;20171;-48
2023/08/20 09:03:17;;;;;;;18.55;15.25;;;26.50;99.90;;;;;;5014808;28;20647;-46
2023/08/20 09:05:53;;;;;;;18.10;12.75;;;26.50;99.90;;;;;;5014754;28;20168;-45
2023/08/20 09:08:26;;;;;;;16.50;12.45;;;26.70;99.90;;;;;;5014751;28;20179;-48
2023/08/20 09:10:52;;;;;;;14.23;12.55;;;26.70;99.90;;;;;;5014673;28;20163;-52
2023/08/20 09:13:26;;;;;;;16.95;12.80;;;26.70;99.90;;;;;;5014519;28;20687;-52
2023/08/20 09:15:52;;;;;;;18.10;12.63;;;26.70;99.90;;;;;;5014414;28;20620;-49
2023/08/20 09:18:18;;;;;;;14.80;12.05;;;26.80;99.90;;;;;;5014485;28;20272;-53
2023/08/20 09:20:44;;;;;;;16.45;11.70;;;26.90;99.90;;;;;;5014321;28;20675;-53
2023/08/20 09:23:15;;;;;;;12.68;11.23;;;27.00;99.90;;;;;;5014324;28;20519;-53
2023/08/20 09:25:45;;;;;;;12.60;10.75;;;26.90;99.90;;;;;;5014105;28;20301;-52
2023/08/20 09:28:11;;;;;;;13.00;9.98;;;27.10;99.90;;;;;;5025428;28;20252;-53
2023/08/20 09:30:39;;;;;;;13.30;10.35;;;27.10;99.90;;;;;;5033724;28;20233;-53
2023/08/20 09:33:10;;;;;;;13.63;10.07;;;27.20;99.90;;;;;;5034210;28;20237;-52
2023/08/20 09:35:35;;;;;;;11.70;9.15;;;27.30;99.90;;;;;;5033890;28;20170;-52
2023/08/20 09:38:03;;;;;;;11.73;9.07;;;27.50;99.90;;;;;;5034071;28;20211;-52
2023/08/20 09:40:29;;;;;;;13.60;9.70;;;28.00;99.90;;;;;;5033988;28;20240;-45
2023/08/20 09:42:56;;;;;;;12.00;9.27;;;28.00;99.90;;;;;;5034139;28;20600;-53
2023/08/20 09:45:25;;;;;;;11.80;9.45;;;27.90;99.90;;;;;;5033711;28;20171;-53
2023/08/20 09:47:56;;;;;;;10.57;8.93;;;28.00;99.90;;;;;;5033697;28;20189;-53
2023/08/20 09:50:23;;;;;;;12.82;9.25;;;28.30;99.90;;;;;;5033904;28;20171;-50
2023/08/20 09:52:57;;;;;;;13.40;10.63;;;28.30;99.90;;;;;;5033850;28;20178;-53
2023/08/20 09:55:28;;;;;;;12.05;10.73;;;28.00;99.90;;;;;;5033484;28;20246;-52
2023/08/20 09:57:54;;;;;;;13.25;9.52;;;27.60;99.90;;;;;;5024203;28;20299;-53
2023/08/20 10:00:21;;;;;;;11.73;8.10;;;27.30;99.90;;;;;;5013689;28;20206;-53
2023/08/20 10:02:47;;;;;;;12.65;10.65;;;27.30;99.90;;;;;;5013605;28;20677;-52
2023/08/20 10:05:14;;;;;;;11.75;9.75;;;27.30;99.90;;;;;;5013534;28;20170;-51
2023/08/20 10:07:40;;;;;;;12.85;9.43;;;27.90;99.90;;;;;;5013794;28;20176;-52
2023/08/20 10:10:07;;;;;;;10.57;9.57;;;28.10;99.90;;;;;;5013552;28;20172;-52
2023/08/20 10:12:34;;;;;;;9.38;7.85;;;27.80;99.90;;;;;;5019001;28;20733;-52
2023/08/20 10:15:01;;;;;;;11.02;8.93;;;27.80;99.90;;;;;;5031992;28;20193;-52
2023/08/20 10:17:29;;;;;;;11.65;9.18;;;27.80;99.90;;;;;;5032375;28;20317;-48
2023/08/20 10:19:57;;;;;;;9.80;8.88;;;27.60;99.90;;;;;;5033355;28;20182;-51
2023/08/20 10:22:35;;;;;;;10.05;8.93;;;27.50;99.90;;;;;;5032899;28;20175;-45
2023/08/20 10:25:02;;;;;;;11.25;9.95;;;27.80;99.90;;;;;;5032924;28;20173;-50
2023/08/20 10:27:32;;;;;;;10.20;8.27;;;28.50;99.90;;;;;;5032041;28;20159;-45
2023/08/20 10:30:03;;;;;;;12.75;8.85;;;28.50;99.90;;;;;;5033072;28;20175;-48
2023/08/20 10:32:49;;;;;;;10.32;9.27;;;28.50;99.90;;;;;;5032793;28;20171;-47
2023/08/20 10:35:17;;;;;;;10.27;8.65;;;28.50;99.90;;;;;;5031900;28;20642;-52
2023/08/20 10:38:11;;;;;;;12.30;8.40;;;29.20;99.90;;;;;;5031645;28;20202;-52
2023/08/20 10:40:58;;;;;;;8.55;7.57;;;29.30;99.90;;;;;;5032226;28;20159;-52
2023/08/20 10:43:35;;;;;;;10.05;7.97;;;30.80;99.90;;;;;;5032694;28;20174;-53
2023/08/20 10:46:24;;;;;;;8.20;7.22;;;29.90;99.90;;;;;;5032361;28;20162;-50
2023/08/20 10:49:01;;;;;;;12.95;8.20;;;30.20;99.90;;;;;;5032078;28;20635;-49
2023/08/20 10:51:32;;;;;;;11.63;8.38;;;30.20;99.90;;;;;;5032631;28;20170;-53
2023/08/20 10:54:06;;;;;;;7.88;7.03;;;29.90;99.90;;;;;;5031878;28;20174;-47
2023/08/20 10:56:43;;;;;;;8.55;6.50;;;29.90;99.90;;;;;;5031270;28;20185;-53
2023/08/20 10:59:31;;;;;;;8.07;6.88;;;29.60;99.90;;;;;;5030511;28;20202;-53
2023/08/20 11:01:58;;;;;;;11.23;6.65;;;29.20;99.90;;;;;;5032114;28;20175;-53
2023/08/20 11:04:38;;;;;;;7.57;6.60;;;29.20;99.90;;;;;;5030918;28;20167;-53
2023/08/20 11:07:04;;;;;;;8.30;7.07;;;29.00;99.90;;;;;;5031968;28;20178;-54
2023/08/20 11:09:31;;;;;;;7.15;6.40;;;28.90;99.90;;;;;;5031898;28;20202;-53
2023/08/20 11:11:59;;;;;;;7.95;6.53;;;28.90;99.90;;;;;;5032039;28;20665;-52
2023/08/20 11:14:25;;;;;;;7.13;6.43;;;29.00;99.90;;;;;;5032279;28;20237;-53
2023/08/20 11:16:51;;;;;;;7.47;6.70;;;29.10;99.90;;;;;;5031758;28;20535;-52
2023/08/20 11:19:21;;;;;;;7.43;6.32;;;29.30;99.90;;;;;;5031518;28;20214;-52
2023/08/20 11:21:48;;;;;;;7.65;6.43;;;29.00;99.90;;;;;;5031553;28;20246;-52
2023/08/20 11:24:13;;;;;;;9.93;7.80;;;29.00;99.90;;;;;;5031781;28;20600;-52
2023/08/20 11:26:40;;;;;;;9.50;6.95;;;28.90;99.90;;;;;;5022816;28;20214;-45
2023/08/20 11:29:12;;;;;;;7.32;6.60;;;28.80;99.90;;;;;;5011931;28;20171;-46
2023/08/20 11:31:39;;;;;;;7.07;6.18;;;29.10;99.90;;;;;;5011887;28;20163;-50
2023/08/20 11:34:05;;;;;;;12.90;6.65;;;29.50;99.90;;;;;;5011460;28;20160;-53
2023/08/20 11:36:32;;;;;;;6.93;6.22;;;29.50;99.90;;;;;;5011622;28;20175;-51
2023/08/20 11:38:58;;;;;;;7.65;6.22;;;29.10;99.90;;;;;;5011616;28;20667;-52
2023/08/20 11:41:24;;;;;;;7.15;5.47;;;28.80;99.90;;;;;;5011818;28;20183;-52
2023/08/20 11:43:52;;;;;;;5.47;4.97;;;28.60;99.90;;;;;;5011128;28;20485;-53
2023/08/20 11:46:23;;;;;;;6.47;5.50;;;28.70;99.90;;;;;;5011490;28;20208;-53
2023/08/20 11:49:06;;;;;;;6.10;4.85;;;28.50;99.90;;;;;;5010757;28;20172;-53
2023/08/20 11:51:39;;;;;;;4.95;4.45;;;28.20;99.90;;;;;;5011495;28;20218;-53
2023/08/20 11:54:12;;;;;;;5.10;4.57;;;28.90;99.90;;;;;;5011533;28;20533;-50
2023/08/20 11:56:50;;;;;;;6.53;4.72;;;29.30;99.90;;;;;;5020016;28;20576;-45
2023/08/20 11:59:20;;;;;;;6.50;4.63;;;29.70;99.90;;;;;;5031197;28;21014;-46
2023/08/20 12:02:00;;;;;;;5.90;4.95;;;30.00;99.90;;;;;;5030956;28;20631;-46
2023/08/20 12:04:27;;;;;;;6.82;6.10;;;29.70;99.90;;;;;;5031870;28;20567;-47
2023/08/20 12:07:05;;;;;;;6.15;5.55;;;29.60;99.90;;;;;;5013983;28;20167;-45
2023/08/20 12:09:31;;;;;;;6.63;6.03;;;29.50;99.90;;;;;;5031235;28;20216;-53
2023/08/20 12:12:05;;;;;;;6.38;5.53;;;29.70;99.90;;;;;;5030800;28;20245;-52
2023/08/20 12:14:31;;;;;;;5.93;5.25;;;29.30;99.90;;;;;;5031056;28;20179;-48
2023/08/20 12:16:57;;;;;;;6.57;5.40;;;29.30;99.90;;;;;;5030318;28;20159;-51
2023/08/20 12:19:23;;;;;;;8.30;5.60;;;29.80;99.90;;;;;;5031182;28;20182;-53
2023/08/20 12:21:49;;;;;;;7.18;5.30;;;30.00;99.90;;;;;;5030792;28;20167;-45
2023/08/20 12:24:15;;;;;;;5.57;5.07;;;30.20;99.90;;;;;;5031168;28;20495;-45
2023/08/20 12:26:40;;;;;;;7.50;4.93;;;30.20;99.90;;;;;;5016710;28;20179;-45
2023/08/20 12:29:07;;;;;;;6.40;5.78;;;30.10;99.90;;;;;;5011103;28;20229;-46
2023/08/20 12:31:33;;;;;;;7.75;5.68;;;29.80;99.90;;;;;;5011305;28;20209;-45
2023/08/20 12:33:59;;;;;;;6.50;5.40;;;29.40;99.90;;;;;;5011367;28;20167;-45